Flight Track Log - Related Links

Times and Time Zones

All times are in EDT time to prevent confusion due to time zone crossing. See the EJA743 flight status page for this flight to view local times or setup timezone preferences in your user account.

Time Position Orientation Groundspeed Altitude Reporting Facility
EDT Latitude Longitude Course Direction KTS MPH feet Rate Location/Type
Mon 08:12:58 PM 34.1667 -118.4000 342° North 221 254 3,800  Level Southern California TRACON
Mon 08:15:06 PM 34.3239 -118.4606 325° Northwest 269 310 11,300 2,936 Climbing Los Angeles Center
Mon 08:16:06 PM 34.3917 -118.5178 324° Northwest 285 328 13,000 1,550 Climbing Los Angeles Center
Mon 08:17:06 PM 34.4614 -118.5803 326° Northwest 298 343 14,400 1,350 Climbing Los Angeles Center
Mon 08:18:06 PM 34.5375 -118.6428 325° Northwest 315 362 15,700 1,550 Climbing Los Angeles Center
Mon 08:19:06 PM 34.6256 -118.7164 323° Northwest 347 399 17,500 1,850 Climbing Los Angeles Center
Mon 08:20:06 PM 34.7156 -118.7975 326° Northwest 388 447 19,400 1,600 Climbing Los Angeles Center
Mon 08:21:06 PM 34.7936 -118.8606 328° Northwest 405 466 20,700 1,400 Climbing Los Angeles Center
Mon 08:22:06 PM 34.9044 -118.9453 327° Northwest 422 486 22,200 1,150 Climbing Los Angeles Center
Mon 08:23:06 PM 35.0089 -119.0275 326° Northwest 433 498 23,000 800 Climbing Los Angeles Center
Mon 08:24:06 PM 35.1111 -119.1125 326° Northwest 438 504 23,800 1,400 Climbing Los Angeles Center
Mon 08:25:06 PM 35.2153 -119.2000 326° Northwest 443 510 25,800 1,850 Climbing Los Angeles Center
Mon 08:26:06 PM 35.3197 -119.2856 326° Northwest 448 516 27,500 1,350 Climbing Los Angeles Center
Mon 08:27:06 PM 35.4239 -119.3711 291° West 448 516 28,500 794 Climbing Los Angeles Center
Mon 08:29:15 PM 35.5239 -119.6853 286° West 468 539 30,000 476 Climbing Oakland Center
Mon 08:30:15 PM 35.5608 -119.8403 287° West 468 539 30,000  Level Oakland Center
Mon 08:31:15 PM 35.5978 -119.9906 286° West 468 539 30,000  Level Oakland Center
Mon 08:32:15 PM 35.6344 -120.1433 287° West 468 539 30,000  Level Oakland Center
Mon 08:33:15 PM 35.6708 -120.2911 294° West 463 533 30,000  Level Oakland Center
Mon 08:34:15 PM 35.7217 -120.4339 299° West 463 533 30,000  Level Oakland Center
Mon 08:35:15 PM 35.7847 -120.5717 299° West 463 533 30,000  Level Oakland Center
Mon 08:36:15 PM 35.8478 -120.7097 299° West 458 527 30,000  Level Oakland Center
Mon 08:37:15 PM 35.9083 -120.8453 300° West 458 527 30,000  Level Oakland Center
Mon 08:38:15 PM 35.9731 -120.9839 318° Northwest 458 527 30,000 -100 Level Oakland Center
Mon 08:39:15 PM 36.0669 -121.0892 326° Northwest 464 534 29,800 -1,350 Descending Oakland Center
Mon 08:40:15 PM 36.1753 -121.1794 325° Northwest 456 525 27,300 -2,727 Descending Oakland Center
Mon 08:41:16 PM 36.2772 -121.2672 324° Northwest 456 525 24,300 -2,850 Descending Oakland Center
Mon 08:42:15 PM 36.3731 -121.3528 334° Northwest 445 512 21,600 -2,723 Descending Oakland Center
Mon 08:43:15 PM 36.4750 -121.4153 342° North 425 489 18,900 -2,600 Descending Oakland Center
Mon 08:44:15 PM 36.5769 -121.4572 340° North 400 460 16,400 -2,500 Descending Oakland Center
Mon 08:45:15 PM 36.6708 -121.4992 342° North 380 437 13,900 -2,100 Descending Oakland Center
Mon 08:46:15 PM 36.7622 -121.5361 340° North 360 414 12,200 -1,800 Descending Oakland Center
Mon 08:47:15 PM 36.8539 -121.5783 339° North 334 384 10,300 -1,800 Descending Oakland Center
Mon 08:48:15 PM 36.9247 -121.6125 348° North 298 343 8,600 -1,429 Descending Oakland Center
Mon 08:49:21 PM 37.0000 -121.6333 338° Northwest 256 295 7,300 -1,143 Descending Northern Cal TRACON
Mon 08:50:21 PM 37.0667 -121.6667 332° Northwest 225 259 6,200 -950 Descending Northern Cal TRACON
Mon 08:51:21 PM 37.1167 -121.7000 345° North 208 239 5,400 -595 Descending Northern Cal TRACON
Mon 08:52:22 PM 37.1667 -121.7167 310° West 189 217 5,000 -744 Descending Northern Cal TRACON
Mon 08:53:22 PM 37.2000 -121.7667 321° Northwest 180 207 3,900 -1,043 Descending Northern Cal TRACON
Mon 08:54:17 PM 37.2333 -121.8000 332° Northwest 173 199 3,000 -992 Descending Northern Cal TRACON
Mon 08:55:23 PM 37.2833 -121.8333 322° Northwest 169 194 1,900 -900 Descending Northern Cal TRACON
Mon 08:56:17 PM 37.3167 -121.8667 310° West 155 178 1,200 -750 Descending Northern Cal TRACON
Mon 08:57:23 PM 37.3500 -121.9167 310° West 138 159 400 -727 Descending Northern Cal TRACON

Login

Don't have an account? Register now (free) for customized features, flight alerts, and more!